Aviation Digital Data Service (ADDS)

Output produced by TAFs form (0255 UTC 01 March 2015)
found at http://aviationweather.gov/adds/tafs/
 
KABQ 282320Z 0100/0124 35008KT P6SM FEW045 SCT060 
     FM010200 17007KT P6SM FEW035 SCT050 
     FM010700 VRB06KT P6SM VCFG SCT005 
     TEMPO 0110/0114 1SM BR OVC005 
     FM011900 19008KT P6SM FEW045